sensor_id;sensor_type;location;lat;lon;timestamp;P1;durP1;ratioP1;P2;durP2;ratioP2
14294;SDS011;7231;59.370;18.016;2022-09-14T00:01:25;3.10;;;0.93;;
14294;SDS011;7231;59.370;18.016;2022-09-14T00:03:54;1.48;;;0.85;;
14294;SDS011;7231;59.370;18.016;2022-09-14T00:06:24;2.83;;;1.10;;
14294;SDS011;7231;59.370;18.016;2022-09-14T00:08:53;5.07;;;1.25;;
14294;SDS011;7231;59.370;18.016;2022-09-14T00:11:25;4.65;;;0.98;;
14294;SDS011;7231;59.370;18.016;2022-09-14T00:13:55;3.53;;;1.00;;
14294;SDS011;7231;59.370;18.016;2022-09-14T00:16:25;2.55;;;0.98;;
14294;SDS011;7231;59.370;18.016;2022-09-14T00:18:55;5.63;;;1.40;;
14294;SDS011;7231;59.370;18.016;2022-09-14T00:21:25;4.15;;;1.40;;
14294;SDS011;7231;59.370;18.016;2022-09-14T00:23:56;3.13;;;1.20;;
14294;SDS011;7231;59.370;18.016;2022-09-14T00:26:25;4.07;;;1.40;;
14294;SDS011;7231;59.370;18.016;2022-09-14T00:28:54;3.20;;;1.27;;
14294;SDS011;7231;59.370;18.016;2022-09-14T00:31:23;5.57;;;1.10;;
14294;SDS011;7231;59.370;18.016;2022-09-14T00:33:52;2.63;;;1.17;;
14294;SDS011;7231;59.370;18.016;2022-09-14T00:36:21;2.80;;;1.25;;
14294;SDS011;7231;59.370;18.016;2022-09-14T00:38:50;6.82;;;1.58;;
14294;SDS011;7231;59.370;18.016;2022-09-14T00:41:21;3.95;;;1.25;;
14294;SDS011;7231;59.370;18.016;2022-09-14T00:43:52;3.40;;;1.30;;
14294;SDS011;7231;59.370;18.016;2022-09-14T00:46:22;5.20;;;1.90;;
14294;SDS011;7231;59.370;18.016;2022-09-14T00:48:52;3.70;;;1.25;;
14294;SDS011;7231;59.370;18.016;2022-09-14T00:51:20;3.20;;;1.90;;
14294;SDS011;7231;59.370;18.016;2022-09-14T00:53:49;5.00;;;1.20;;
14294;SDS011;7231;59.370;18.016;2022-09-14T00:56:17;4.82;;;1.58;;
14294;SDS011;7231;59.370;18.016;2022-09-14T00:58:46;5.75;;;1.80;;
14294;SDS011;7231;59.370;18.016;2022-09-14T01:01:19;7.03;;;1.40;;
14294;SDS011;7231;59.370;18.016;2022-09-14T01:03:47;5.28;;;1.60;;
14294;SDS011;7231;59.370;18.016;2022-09-14T01:06:16;3.63;;;1.55;;
14294;SDS011;7231;59.370;18.016;2022-09-14T01:09:00;3.88;;;2.05;;
14294;SDS011;7231;59.370;18.016;2022-09-14T01:14:37;4.28;;;1.35;;
14294;SDS011;7231;59.370;18.016;2022-09-14T01:17:14;4.72;;;1.55;;
14294;SDS011;7231;59.370;18.016;2022-09-14T01:20:01;4.80;;;1.83;;
14294;SDS011;7231;59.370;18.016;2022-09-14T01:22:38;3.25;;;1.98;;
14294;SDS011;7231;59.370;18.016;2022-09-14T01:25:17;3.63;;;1.65;;
14294;SDS011;7231;59.370;18.016;2022-09-14T01:28:02;3.17;;;1.58;;
14294;SDS011;7231;59.370;18.016;2022-09-14T01:30:37;4.50;;;1.80;;
14294;SDS011;7231;59.370;18.016;2022-09-14T01:33:08;5.45;;;1.73;;
14294;SDS011;7231;59.370;18.016;2022-09-14T01:35:42;3.00;;;1.80;;
14294;SDS011;7231;59.370;18.016;2022-09-14T01:38:15;2.90;;;1.60;;
14294;SDS011;7231;59.370;18.016;2022-09-14T01:40:47;3.67;;;1.60;;
14294;SDS011;7231;59.370;18.016;2022-09-14T01:43:20;6.05;;;1.50;;
14294;SDS011;7231;59.370;18.016;2022-09-14T01:45:53;2.92;;;1.58;;
14294;SDS011;7231;59.370;18.016;2022-09-14T01:48:27;5.03;;;1.45;;
14294;SDS011;7231;59.370;18.016;2022-09-14T01:50:59;4.22;;;1.70;;
14294;SDS011;7231;59.370;18.016;2022-09-14T01:53:33;3.40;;;1.45;;
14294;SDS011;7231;59.370;18.016;2022-09-14T01:56:06;8.07;;;1.42;;
14294;SDS011;7231;59.370;18.016;2022-09-14T01:58:39;4.65;;;1.58;;
14294;SDS011;7231;59.370;18.016;2022-09-14T02:01:12;3.70;;;1.38;;
14294;SDS011;7231;59.370;18.016;2022-09-14T02:03:44;5.15;;;1.30;;
14294;SDS011;7231;59.370;18.016;2022-09-14T02:06:16;1.73;;;1.27;;
14294;SDS011;7231;59.370;18.016;2022-09-14T02:08:49;5.10;;;1.50;;
14294;SDS011;7231;59.370;18.016;2022-09-14T02:11:18;2.55;;;1.33;;
14294;SDS011;7231;59.370;18.016;2022-09-14T02:13:47;3.50;;;1.65;;
14294;SDS011;7231;59.370;18.016;2022-09-14T02:16:15;5.43;;;1.65;;
14294;SDS011;7231;59.370;18.016;2022-09-14T02:18:44;6.32;;;1.63;;
14294;SDS011;7231;59.370;18.016;2022-09-14T02:21:12;6.43;;;1.70;;
14294;SDS011;7231;59.370;18.016;2022-09-14T02:23:44;5.03;;;1.73;;
14294;SDS011;7231;59.370;18.016;2022-09-14T02:26:13;4.57;;;1.60;;
14294;SDS011;7231;59.370;18.016;2022-09-14T02:28:42;7.60;;;1.60;;
14294;SDS011;7231;59.370;18.016;2022-09-14T02:31:15;4.25;;;1.63;;
14294;SDS011;7231;59.370;18.016;2022-09-14T02:33:51;6.35;;;2.38;;
14294;SDS011;7231;59.370;18.016;2022-09-14T02:36:30;6.18;;;1.90;;
14294;SDS011;7231;59.370;18.016;2022-09-14T02:39:11;5.80;;;2.42;;
14294;SDS011;7231;59.370;18.016;2022-09-14T02:41:49;6.05;;;1.90;;
14294;SDS011;7231;59.370;18.016;2022-09-14T02:44:22;5.55;;;2.20;;
14294;SDS011;7231;59.370;18.016;2022-09-14T02:46:59;4.15;;;1.60;;
14294;SDS011;7231;59.370;18.016;2022-09-14T02:49:33;4.57;;;2.28;;
14294;SDS011;7231;59.370;18.016;2022-09-14T02:52:12;5.57;;;1.90;;
14294;SDS011;7231;59.370;18.016;2022-09-14T02:54:44;6.00;;;2.15;;
14294;SDS011;7231;59.370;18.016;2022-09-14T02:57:16;3.55;;;2.22;;
14294;SDS011;7231;59.370;18.016;2022-09-14T02:59:45;3.15;;;1.67;;
14294;SDS011;7231;59.370;18.016;2022-09-14T03:02:14;3.65;;;1.85;;
14294;SDS011;7231;59.370;18.016;2022-09-14T03:04:42;4.75;;;1.90;;
14294;SDS011;7231;59.370;18.016;2022-09-14T03:07:10;2.97;;;1.48;;
14294;SDS011;7231;59.370;18.016;2022-09-14T03:09:38;3.22;;;1.90;;
14294;SDS011;7231;59.370;18.016;2022-09-14T03:12:06;2.67;;;1.35;;
14294;SDS011;7231;59.370;18.016;2022-09-14T03:14:34;4.70;;;1.70;;
14294;SDS011;7231;59.370;18.016;2022-09-14T03:17:02;1.25;;;0.90;;
14294;SDS011;7231;59.370;18.016;2022-09-14T03:19:32;2.08;;;1.00;;
14294;SDS011;7231;59.370;18.016;2022-09-14T03:22:00;3.90;;;1.10;;
14294;SDS011;7231;59.370;18.016;2022-09-14T03:24:28;2.95;;;1.10;;
14294;SDS011;7231;59.370;18.016;2022-09-14T03:26:56;1.83;;;1.20;;
14294;SDS011;7231;59.370;18.016;2022-09-14T03:29:25;1.42;;;0.77;;
14294;SDS011;7231;59.370;18.016;2022-09-14T03:31:53;1.67;;;0.90;;
14294;SDS011;7231;59.370;18.016;2022-09-14T03:34:21;1.27;;;0.82;;
14294;SDS011;7231;59.370;18.016;2022-09-14T03:36:50;3.03;;;0.90;;
14294;SDS011;7231;59.370;18.016;2022-09-14T03:39:18;1.45;;;0.82;;
14294;SDS011;7231;59.370;18.016;2022-09-14T03:41:47;1.85;;;0.80;;
14294;SDS011;7231;59.370;18.016;2022-09-14T03:44:15;2.03;;;0.75;;
14294;SDS011;7231;59.370;18.016;2022-09-14T03:46:43;1.08;;;0.75;;
14294;SDS011;7231;59.370;18.016;2022-09-14T03:49:11;2.13;;;0.80;;
14294;SDS011;7231;59.370;18.016;2022-09-14T03:51:39;0.73;;;0.65;;
14294;SDS011;7231;59.370;18.016;2022-09-14T03:54:08;0.93;;;0.80;;
14294;SDS011;7231;59.370;18.016;2022-09-14T03:56:36;1.67;;;0.90;;
14294;SDS011;7231;59.370;18.016;2022-09-14T03:59:06;0.70;;;0.70;;
14294;SDS011;7231;59.370;18.016;2022-09-14T04:01:34;1.38;;;1.00;;
14294;SDS011;7231;59.370;18.016;2022-09-14T04:04:03;2.97;;;0.90;;
14294;SDS011;7231;59.370;18.016;2022-09-14T04:06:31;2.20;;;0.95;;
14294;SDS011;7231;59.370;18.016;2022-09-14T04:08:59;1.35;;;1.00;;
14294;SDS011;7231;59.370;18.016;2022-09-14T04:11:29;2.00;;;0.82;;
14294;SDS011;7231;59.370;18.016;2022-09-14T04:13:59;1.83;;;0.95;;
14294;SDS011;7231;59.370;18.016;2022-09-14T04:16:28;2.35;;;1.17;;
14294;SDS011;7231;59.370;18.016;2022-09-14T04:18:56;3.42;;;1.35;;
14294;SDS011;7231;59.370;18.016;2022-09-14T04:21:24;1.85;;;1.00;;
14294;SDS011;7231;59.370;18.016;2022-09-14T04:23:52;2.25;;;0.98;;
14294;SDS011;7231;59.370;18.016;2022-09-14T04:26:41;1.60;;;0.85;;
14294;SDS011;7231;59.370;18.016;2022-09-14T04:29:09;1.88;;;1.05;;
14294;SDS011;7231;59.370;18.016;2022-09-14T04:31:39;3.25;;;1.00;;
14294;SDS011;7231;59.370;18.016;2022-09-14T04:34:08;1.92;;;1.20;;
14294;SDS011;7231;59.370;18.016;2022-09-14T04:36:38;2.03;;;1.27;;
14294;SDS011;7231;59.370;18.016;2022-09-14T04:39:06;3.92;;;1.33;;
14294;SDS011;7231;59.370;18.016;2022-09-14T04:41:36;1.95;;;1.40;;
14294;SDS011;7231;59.370;18.016;2022-09-14T04:44:05;2.55;;;1.20;;
14294;SDS011;7231;59.370;18.016;2022-09-14T04:46:33;1.50;;;1.20;;
14294;SDS011;7231;59.370;18.016;2022-09-14T04:49:02;2.53;;;1.63;;
14294;SDS011;7231;59.370;18.016;2022-09-14T04:51:30;3.80;;;1.38;;
14294;SDS011;7231;59.370;18.016;2022-09-14T04:53:59;2.35;;;0.90;;
14294;SDS011;7231;59.370;18.016;2022-09-14T04:56:32;4.60;;;1.20;;
14294;SDS011;7231;59.370;18.016;2022-09-14T04:59:03;2.28;;;1.38;;
14294;SDS011;7231;59.370;18.016;2022-09-14T05:01:33;2.45;;;0.93;;
14294;SDS011;7231;59.370;18.016;2022-09-14T05:04:03;1.90;;;0.98;;
14294;SDS011;7231;59.370;18.016;2022-09-14T05:06:32;3.17;;;1.13;;
14294;SDS011;7231;59.370;18.016;2022-09-14T05:09:02;2.42;;;1.20;;
14294;SDS011;7231;59.370;18.016;2022-09-14T05:11:33;1.67;;;1.00;;
14294;SDS011;7231;59.370;18.016;2022-09-14T05:14:03;1.67;;;1.00;;
14294;SDS011;7231;59.370;18.016;2022-09-14T05:16:34;2.50;;;1.20;;
14294;SDS011;7231;59.370;18.016;2022-09-14T05:19:04;1.70;;;1.00;;
14294;SDS011;7231;59.370;18.016;2022-09-14T05:21:34;1.83;;;0.90;;
14294;SDS011;7231;59.370;18.016;2022-09-14T05:24:04;1.73;;;1.00;;
14294;SDS011;7231;59.370;18.016;2022-09-14T05:26:34;2.00;;;1.02;;
14294;SDS011;7231;59.370;18.016;2022-09-14T05:29:02;3.35;;;1.10;;
14294;SDS011;7231;59.370;18.016;2022-09-14T05:31:30;2.67;;;1.42;;
14294;SDS011;7231;59.370;18.016;2022-09-14T05:34:00;2.25;;;1.40;;
14294;SDS011;7231;59.370;18.016;2022-09-14T05:36:28;2.80;;;1.10;;
14294;SDS011;7231;59.370;18.016;2022-09-14T05:38:56;1.23;;;1.10;;
14294;SDS011;7231;59.370;18.016;2022-09-14T05:41:24;2.63;;;1.30;;
14294;SDS011;7231;59.370;18.016;2022-09-14T05:43:52;1.23;;;1.00;;
14294;SDS011;7231;59.370;18.016;2022-09-14T05:46:20;2.20;;;0.98;;
14294;SDS011;7231;59.370;18.016;2022-09-14T05:48:49;2.13;;;0.85;;
14294;SDS011;7231;59.370;18.016;2022-09-14T05:51:18;2.65;;;1.10;;
14294;SDS011;7231;59.370;18.016;2022-09-14T05:53:48;1.60;;;0.82;;
14294;SDS011;7231;59.370;18.016;2022-09-14T05:56:17;3.55;;;0.93;;
14294;SDS011;7231;59.370;18.016;2022-09-14T05:58:46;1.25;;;0.80;;
14294;SDS011;7231;59.370;18.016;2022-09-14T06:01:15;2.70;;;1.15;;
14294;SDS011;7231;59.370;18.016;2022-09-14T06:03:45;1.10;;;0.88;;
14294;SDS011;7231;59.370;18.016;2022-09-14T06:06:16;1.63;;;1.08;;
14294;SDS011;7231;59.370;18.016;2022-09-14T06:08:45;2.08;;;0.95;;
14294;SDS011;7231;59.370;18.016;2022-09-14T06:11:20;1.75;;;1.05;;
14294;SDS011;7231;59.370;18.016;2022-09-14T06:13:49;2.25;;;0.98;;
14294;SDS011;7231;59.370;18.016;2022-09-14T06:16:20;2.20;;;0.95;;
14294;SDS011;7231;59.370;18.016;2022-09-14T06:18:49;1.40;;;1.10;;
14294;SDS011;7231;59.370;18.016;2022-09-14T06:21:18;1.58;;;0.90;;
14294;SDS011;7231;59.370;18.016;2022-09-14T06:23:47;2.70;;;1.10;;
14294;SDS011;7231;59.370;18.016;2022-09-14T06:26:17;1.20;;;0.80;;
14294;SDS011;7231;59.370;18.016;2022-09-14T06:28:46;1.25;;;1.00;;
14294;SDS011;7231;59.370;18.016;2022-09-14T06:31:14;2.22;;;0.93;;
14294;SDS011;7231;59.370;18.016;2022-09-14T06:33:43;0.70;;;0.70;;
14294;SDS011;7231;59.370;18.016;2022-09-14T06:36:12;2.05;;;1.00;;
14294;SDS011;7231;59.370;18.016;2022-09-14T06:38:44;1.35;;;0.90;;
14294;SDS011;7231;59.370;18.016;2022-09-14T06:41:14;1.95;;;0.80;;
14294;SDS011;7231;59.370;18.016;2022-09-14T06:43:45;0.82;;;0.80;;
14294;SDS011;7231;59.370;18.016;2022-09-14T06:46:15;0.98;;;0.82;;
14294;SDS011;7231;59.370;18.016;2022-09-14T06:48:45;1.30;;;0.73;;
14294;SDS011;7231;59.370;18.016;2022-09-14T06:51:16;1.80;;;1.00;;
14294;SDS011;7231;59.370;18.016;2022-09-14T06:53:47;1.55;;;0.80;;
14294;SDS011;7231;59.370;18.016;2022-09-14T06:56:16;1.65;;;0.70;;
14294;SDS011;7231;59.370;18.016;2022-09-14T06:58:45;1.48;;;0.77;;
14294;SDS011;7231;59.370;18.016;2022-09-14T07:01:13;2.72;;;0.70;;
14294;SDS011;7231;59.370;18.016;2022-09-14T07:03:42;2.40;;;0.90;;
14294;SDS011;7231;59.370;18.016;2022-09-14T07:06:13;3.30;;;0.60;;
14294;SDS011;7231;59.370;18.016;2022-09-14T07:08:43;2.40;;;0.70;;
14294;SDS011;7231;59.370;18.016;2022-09-14T07:11:12;0.95;;;0.60;;
14294;SDS011;7231;59.370;18.016;2022-09-14T07:13:42;0.80;;;0.55;;
14294;SDS011;7231;59.370;18.016;2022-09-14T07:16:11;1.52;;;0.50;;
14294;SDS011;7231;59.370;18.016;2022-09-14T07:18:40;0.60;;;0.57;;
14294;SDS011;7231;59.370;18.016;2022-09-14T07:21:09;0.93;;;0.50;;
14294;SDS011;7231;59.370;18.016;2022-09-14T07:23:39;0.63;;;0.47;;
14294;SDS011;7231;59.370;18.016;2022-09-14T07:26:09;0.90;;;0.50;;
14294;SDS011;7231;59.370;18.016;2022-09-14T07:28:40;0.85;;;0.45;;
14294;SDS011;7231;59.370;18.016;2022-09-14T07:31:14;0.98;;;0.77;;
14294;SDS011;7231;59.370;18.016;2022-09-14T07:33:44;0.50;;;0.45;;
14294;SDS011;7231;59.370;18.016;2022-09-14T07:36:13;3.60;;;0.70;;
14294;SDS011;7231;59.370;18.016;2022-09-14T07:38:41;0.57;;;0.40;;
14294;SDS011;7231;59.370;18.016;2022-09-14T07:41:18;0.52;;;0.40;;
14294;SDS011;7231;59.370;18.016;2022-09-14T07:43:48;2.03;;;0.50;;
14294;SDS011;7231;59.370;18.016;2022-09-14T07:46:17;1.13;;;0.50;;
14294;SDS011;7231;59.370;18.016;2022-09-14T07:48:46;2.85;;;0.57;;
14294;SDS011;7231;59.370;18.016;2022-09-14T07:51:15;1.20;;;1.00;;
14294;SDS011;7231;59.370;18.016;2022-09-14T07:53:43;2.05;;;0.73;;
14294;SDS011;7231;59.370;18.016;2022-09-14T07:56:11;1.55;;;0.40;;
14294;SDS011;7231;59.370;18.016;2022-09-14T07:58:42;0.38;;;0.32;;
14294;SDS011;7231;59.370;18.016;2022-09-14T08:01:13;1.27;;;0.50;;
14294;SDS011;7231;59.370;18.016;2022-09-14T08:03:43;0.40;;;0.40;;
14294;SDS011;7231;59.370;18.016;2022-09-14T08:06:15;0.60;;;0.40;;
14294;SDS011;7231;59.370;18.016;2022-09-14T08:08:45;0.30;;;0.30;;
14294;SDS011;7231;59.370;18.016;2022-09-14T08:11:14;0.60;;;0.50;;
14294;SDS011;7231;59.370;18.016;2022-09-14T08:13:45;1.00;;;0.40;;
14294;SDS011;7231;59.370;18.016;2022-09-14T08:16:17;0.60;;;0.32;;
14294;SDS011;7231;59.370;18.016;2022-09-14T08:18:46;0.40;;;0.40;;
14294;SDS011;7231;59.370;18.016;2022-09-14T08:21:15;0.40;;;0.30;;
14294;SDS011;7231;59.370;18.016;2022-09-14T08:23:44;1.20;;;0.30;;
14294;SDS011;7231;59.370;18.016;2022-09-14T08:26:12;0.43;;;0.38;;
14294;SDS011;7231;59.370;18.016;2022-09-14T08:28:41;0.52;;;0.32;;
14294;SDS011;7231;59.370;18.016;2022-09-14T08:31:11;1.13;;;0.50;;
14294;SDS011;7231;59.370;18.016;2022-09-14T08:33:42;1.30;;;0.50;;
14294;SDS011;7231;59.370;18.016;2022-09-14T08:36:12;1.08;;;0.40;;
14294;SDS011;7231;59.370;18.016;2022-09-14T08:38:41;0.50;;;0.50;;
14294;SDS011;7231;59.370;18.016;2022-09-14T08:41:15;1.05;;;0.40;;
14294;SDS011;7231;59.370;18.016;2022-09-14T08:43:51;2.05;;;0.40;;
14294;SDS011;7231;59.370;18.016;2022-09-14T08:46:24;0.40;;;0.32;;
14294;SDS011;7231;59.370;18.016;2022-09-14T08:48:57;1.67;;;0.55;;
14294;SDS011;7231;59.370;18.016;2022-09-14T08:51:27;0.45;;;0.40;;
14294;SDS011;7231;59.370;18.016;2022-09-14T08:53:56;0.73;;;0.50;;
14294;SDS011;7231;59.370;18.016;2022-09-14T08:56:27;1.27;;;0.40;;
14294;SDS011;7231;59.370;18.016;2022-09-14T08:59:05;0.70;;;0.60;;
14294;SDS011;7231;59.370;18.016;2022-09-14T09:01:50;0.95;;;0.50;;
14294;SDS011;7231;59.370;18.016;2022-09-14T09:07:17;1.67;;;0.30;;
14294;SDS011;7231;59.370;18.016;2022-09-14T09:09:52;0.35;;;0.30;;
14294;SDS011;7231;59.370;18.016;2022-09-14T09:12:28;0.57;;;0.52;;
14294;SDS011;7231;59.370;18.016;2022-09-14T09:15:03;1.15;;;0.40;;
14294;SDS011;7231;59.370;18.016;2022-09-14T09:17:42;1.52;;;0.43;;
14294;SDS011;7231;59.370;18.016;2022-09-14T09:20:14;1.30;;;0.50;;
14294;SDS011;7231;59.370;18.016;2022-09-14T09:22:49;0.77;;;0.50;;
14294;SDS011;7231;59.370;18.016;2022-09-14T09:25:22;2.08;;;0.52;;
14294;SDS011;7231;59.370;18.016;2022-09-14T09:27:54;0.30;;;0.30;;
14294;SDS011;7231;59.370;18.016;2022-09-14T09:30:27;2.05;;;0.40;;
14294;SDS011;7231;59.370;18.016;2022-09-14T09:32:56;1.48;;;0.60;;
14294;SDS011;7231;59.370;18.016;2022-09-14T09:35:25;1.25;;;0.50;;
14294;SDS011;7231;59.370;18.016;2022-09-14T09:37:54;1.27;;;0.43;;
14294;SDS011;7231;59.370;18.016;2022-09-14T09:40:24;0.50;;;0.50;;
14294;SDS011;7231;59.370;18.016;2022-09-14T09:43:07;1.52;;;0.40;;
14294;SDS011;7231;59.370;18.016;2022-09-14T09:45:50;0.90;;;0.40;;
14294;SDS011;7231;59.370;18.016;2022-09-14T09:48:22;1.52;;;0.50;;
14294;SDS011;7231;59.370;18.016;2022-09-14T09:50:58;1.30;;;0.60;;
14294;SDS011;7231;59.370;18.016;2022-09-14T09:53:29;0.40;;;0.40;;
14294;SDS011;7231;59.370;18.016;2022-09-14T09:55:59;0.77;;;0.40;;
14294;SDS011;7231;59.370;18.016;2022-09-14T09:58:33;1.05;;;0.50;;
14294;SDS011;7231;59.370;18.016;2022-09-14T10:01:02;0.93;;;0.50;;
14294;SDS011;7231;59.370;18.016;2022-09-14T10:03:38;0.60;;;0.50;;
14294;SDS011;7231;59.370;18.016;2022-09-14T10:06:09;1.38;;;0.65;;
14294;SDS011;7231;59.370;18.016;2022-09-14T10:08:39;1.20;;;0.60;;
14294;SDS011;7231;59.370;18.016;2022-09-14T10:11:28;0.88;;;0.45;;
14294;SDS011;7231;59.370;18.016;2022-09-14T10:14:00;1.27;;;0.52;;
14294;SDS011;7231;59.370;18.016;2022-09-14T10:16:30;2.50;;;0.50;;
14294;SDS011;7231;59.370;18.016;2022-09-14T10:19:03;2.67;;;0.70;;
14294;SDS011;7231;59.370;18.016;2022-09-14T10:24:33;1.35;;;0.60;;
14294;SDS011;7231;59.370;18.016;2022-09-14T10:27:10;1.17;;;0.55;;
14294;SDS011;7231;59.370;18.016;2022-09-14T10:30:14;1.13;;;0.73;;
14294;SDS011;7231;59.370;18.016;2022-09-14T10:32:45;0.82;;;0.47;;
14294;SDS011;7231;59.370;18.016;2022-09-14T10:35:18;1.52;;;0.50;;
14294;SDS011;7231;59.370;18.016;2022-09-14T10:37:57;0.50;;;0.40;;
14294;SDS011;7231;59.370;18.016;2022-09-14T10:40:36;1.48;;;0.52;;
14294;SDS011;7231;59.370;18.016;2022-09-14T10:43:09;0.60;;;0.30;;
14294;SDS011;7231;59.370;18.016;2022-09-14T10:45:44;0.60;;;0.50;;
14294;SDS011;7231;59.370;18.016;2022-09-14T10:48:40;0.45;;;0.45;;
14294;SDS011;7231;59.370;18.016;2022-09-14T10:51:31;1.05;;;0.40;;
14294;SDS011;7231;59.370;18.016;2022-09-14T10:54:10;1.08;;;0.40;;
14294;SDS011;7231;59.370;18.016;2022-09-14T10:56:51;0.70;;;0.40;;
14294;SDS011;7231;59.370;18.016;2022-09-14T10:59:31;0.43;;;0.40;;
14294;SDS011;7231;59.370;18.016;2022-09-14T11:02:19;1.75;;;0.60;;
14294;SDS011;7231;59.370;18.016;2022-09-14T11:05:03;0.85;;;0.40;;
14294;SDS011;7231;59.370;18.016;2022-09-14T11:07:40;0.85;;;0.47;;
14294;SDS011;7231;59.370;18.016;2022-09-14T11:10:21;0.98;;;0.40;;
14294;SDS011;7231;59.370;18.016;2022-09-14T11:13:03;1.15;;;0.45;;
14294;SDS011;7231;59.370;18.016;2022-09-14T11:15:44;0.98;;;0.60;;
14294;SDS011;7231;59.370;18.016;2022-09-14T11:18:26;1.88;;;0.60;;
14294;SDS011;7231;59.370;18.016;2022-09-14T11:21:04;0.73;;;0.40;;
14294;SDS011;7231;59.370;18.016;2022-09-14T11:23:44;0.40;;;0.40;;
14294;SDS011;7231;59.370;18.016;2022-09-14T11:26:18;0.40;;;0.40;;
14294;SDS011;7231;59.370;18.016;2022-09-14T11:28:53;0.40;;;0.40;;
14294;SDS011;7231;59.370;18.016;2022-09-14T11:31:30;1.33;;;0.40;;
14294;SDS011;7231;59.370;18.016;2022-09-14T11:34:04;1.38;;;0.45;;
14294;SDS011;7231;59.370;18.016;2022-09-14T11:36:42;0.32;;;0.32;;
14294;SDS011;7231;59.370;18.016;2022-09-14T11:39:14;0.73;;;0.50;;
14294;SDS011;7231;59.370;18.016;2022-09-14T11:41:46;0.77;;;0.50;;
14294;SDS011;7231;59.370;18.016;2022-09-14T11:44:20;1.23;;;0.60;;
14294;SDS011;7231;59.370;18.016;2022-09-14T11:46:54;1.80;;;0.60;;
14294;SDS011;7231;59.370;18.016;2022-09-14T11:49:27;2.58;;;0.50;;
14294;SDS011;7231;59.370;18.016;2022-09-14T11:52:06;0.90;;;0.60;;
14294;SDS011;7231;59.370;18.016;2022-09-14T11:54:40;0.60;;;0.50;;
14294;SDS011;7231;59.370;18.016;2022-09-14T11:57:13;1.10;;;0.60;;
14294;SDS011;7231;59.370;18.016;2022-09-14T11:59:49;0.80;;;0.52;;
14294;SDS011;7231;59.370;18.016;2022-09-14T12:05:38;1.58;;;0.60;;
14294;SDS011;7231;59.370;18.016;2022-09-14T12:11:23;1.55;;;0.47;;
14294;SDS011;7231;59.370;18.016;2022-09-14T12:14:11;1.13;;;0.45;;
14294;SDS011;7231;59.370;18.016;2022-09-14T12:20:26;1.98;;;0.52;;
14294;SDS011;7231;59.370;18.016;2022-09-14T12:23:11;1.17;;;0.60;;
14294;SDS011;7231;59.370;18.016;2022-09-14T12:26:00;0.57;;;0.40;;
14294;SDS011;7231;59.370;18.016;2022-09-14T12:28:40;0.63;;;0.40;;
14294;SDS011;7231;59.370;18.016;2022-09-14T12:31:30;0.50;;;0.40;;
14294;SDS011;7231;59.370;18.016;2022-09-14T12:34:11;0.52;;;0.52;;
14294;SDS011;7231;59.370;18.016;2022-09-14T12:36:59;1.10;;;0.47;;
14294;SDS011;7231;59.370;18.016;2022-09-14T12:40:09;1.33;;;0.40;;
14294;SDS011;7231;59.370;18.016;2022-09-14T12:52:09;0.40;;;0.40;;
14294;SDS011;7231;59.370;18.016;2022-09-14T12:57:49;0.95;;;0.57;;
14294;SDS011;7231;59.370;18.016;2022-09-14T13:00:22;1.67;;;0.40;;
14294;SDS011;7231;59.370;18.016;2022-09-14T13:02:58;2.38;;;0.70;;
14294;SDS011;7231;59.370;18.016;2022-09-14T13:05:40;0.43;;;0.40;;
14294;SDS011;7231;59.370;18.016;2022-09-14T13:08:10;0.52;;;0.38;;
14294;SDS011;7231;59.370;18.016;2022-09-14T13:10:44;0.70;;;0.40;;
14294;SDS011;7231;59.370;18.016;2022-09-14T13:13:14;1.02;;;0.50;;
14294;SDS011;7231;59.370;18.016;2022-09-14T13:15:47;1.38;;;0.38;;
14294;SDS011;7231;59.370;18.016;2022-09-14T13:18:29;0.55;;;0.50;;
14294;SDS011;7231;59.370;18.016;2022-09-14T13:21:01;2.17;;;0.52;;
14294;SDS011;7231;59.370;18.016;2022-09-14T13:23:31;1.83;;;0.57;;
14294;SDS011;7231;59.370;18.016;2022-09-14T13:26:08;0.73;;;0.40;;
14294;SDS011;7231;59.370;18.016;2022-09-14T13:28:37;0.30;;;0.30;;
14294;SDS011;7231;59.370;18.016;2022-09-14T13:31:10;0.40;;;0.40;;
14294;SDS011;7231;59.370;18.016;2022-09-14T13:33:44;0.32;;;0.32;;
14294;SDS011;7231;59.370;18.016;2022-09-14T13:36:16;0.60;;;0.40;;
14294;SDS011;7231;59.370;18.016;2022-09-14T13:38:48;0.43;;;0.32;;
14294;SDS011;7231;59.370;18.016;2022-09-14T13:41:18;0.70;;;0.40;;
14294;SDS011;7231;59.370;18.016;2022-09-14T13:43:48;0.70;;;0.55;;
14294;SDS011;7231;59.370;18.016;2022-09-14T13:46:20;0.90;;;0.70;;
14294;SDS011;7231;59.370;18.016;2022-09-14T13:48:48;1.20;;;0.40;;
14294;SDS011;7231;59.370;18.016;2022-09-14T13:51:22;0.38;;;0.38;;
14294;SDS011;7231;59.370;18.016;2022-09-14T13:53:52;0.75;;;0.40;;
14294;SDS011;7231;59.370;18.016;2022-09-14T13:56:23;0.90;;;0.30;;
14294;SDS011;7231;59.370;18.016;2022-09-14T13:59:13;1.00;;;0.35;;
14294;SDS011;7231;59.370;18.016;2022-09-14T14:01:51;0.52;;;0.30;;
14294;SDS011;7231;59.370;18.016;2022-09-14T14:04:23;0.30;;;0.30;;
14294;SDS011;7231;59.370;18.016;2022-09-14T14:07:00;0.50;;;0.45;;
14294;SDS011;7231;59.370;18.016;2022-09-14T14:09:38;0.35;;;0.30;;
14294;SDS011;7231;59.370;18.016;2022-09-14T14:12:09;0.30;;;0.30;;
14294;SDS011;7231;59.370;18.016;2022-09-14T14:14:39;0.63;;;0.40;;
14294;SDS011;7231;59.370;18.016;2022-09-14T14:17:23;0.40;;;0.40;;
14294;SDS011;7231;59.370;18.016;2022-09-14T14:20:27;0.40;;;0.32;;
14294;SDS011;7231;59.370;18.016;2022-09-14T14:23:11;0.73;;;0.30;;
14294;SDS011;7231;59.370;18.016;2022-09-14T14:25:47;1.08;;;0.28;;
14294;SDS011;7231;59.370;18.016;2022-09-14T14:28:21;0.88;;;0.50;;
14294;SDS011;7231;59.370;18.016;2022-09-14T14:30:51;0.85;;;0.40;;
14294;SDS011;7231;59.370;18.016;2022-09-14T14:33:20;0.75;;;0.30;;
14294;SDS011;7231;59.370;18.016;2022-09-14T14:35:49;0.40;;;0.38;;
14294;SDS011;7231;59.370;18.016;2022-09-14T14:38:21;1.27;;;0.40;;
14294;SDS011;7231;59.370;18.016;2022-09-14T14:40:50;0.40;;;0.40;;
14294;SDS011;7231;59.370;18.016;2022-09-14T14:43:21;0.40;;;0.30;;
14294;SDS011;7231;59.370;18.016;2022-09-14T14:45:51;0.52;;;0.50;;
14294;SDS011;7231;59.370;18.016;2022-09-14T14:48:22;0.90;;;0.38;;
14294;SDS011;7231;59.370;18.016;2022-09-14T14:50:50;0.77;;;0.43;;
14294;SDS011;7231;59.370;18.016;2022-09-14T14:53:18;0.30;;;0.30;;
14294;SDS011;7231;59.370;18.016;2022-09-14T14:55:47;4.13;;;3.72;;
14294;SDS011;7231;59.370;18.016;2022-09-14T14:58:16;0.40;;;0.30;;
14294;SDS011;7231;59.370;18.016;2022-09-14T15:00:45;0.30;;;0.30;;
14294;SDS011;7231;59.370;18.016;2022-09-14T15:03:14;0.55;;;0.30;;
14294;SDS011;7231;59.370;18.016;2022-09-14T15:05:44;0.22;;;0.20;;
14294;SDS011;7231;59.370;18.016;2022-09-14T15:08:14;0.47;;;0.25;;
14294;SDS011;7231;59.370;18.016;2022-09-14T15:10:43;0.65;;;0.60;;
14294;SDS011;7231;59.370;18.016;2022-09-14T15:13:12;0.50;;;0.30;;
14294;SDS011;7231;59.370;18.016;2022-09-14T15:15:40;1.25;;;0.40;;
14294;SDS011;7231;59.370;18.016;2022-09-14T15:18:09;0.60;;;0.30;;
14294;SDS011;7231;59.370;18.016;2022-09-14T15:20:37;0.73;;;0.40;;
14294;SDS011;7231;59.370;18.016;2022-09-14T15:23:05;1.25;;;0.43;;
14294;SDS011;7231;59.370;18.016;2022-09-14T15:25:35;0.95;;;0.43;;
14294;SDS011;7231;59.370;18.016;2022-09-14T15:28:03;1.95;;;0.50;;
14294;SDS011;7231;59.370;18.016;2022-09-14T15:30:32;0.85;;;0.52;;
14294;SDS011;7231;59.370;18.016;2022-09-14T15:33:00;1.50;;;0.50;;
14294;SDS011;7231;59.370;18.016;2022-09-14T15:35:28;0.40;;;0.30;;
14294;SDS011;7231;59.370;18.016;2022-09-14T15:37:56;1.45;;;0.40;;
14294;SDS011;7231;59.370;18.016;2022-09-14T15:40:24;1.48;;;0.40;;
14294;SDS011;7231;59.370;18.016;2022-09-14T15:42:52;0.40;;;0.30;;
14294;SDS011;7231;59.370;18.016;2022-09-14T15:45:20;1.33;;;0.47;;
14294;SDS011;7231;59.370;18.016;2022-09-14T15:47:49;0.47;;;0.40;;
14294;SDS011;7231;59.370;18.016;2022-09-14T15:50:17;0.82;;;0.43;;